sensor_id;sensor_type;location;lat;lon;timestamp;P1;durP1;ratioP1;P2;durP2;ratioP2
31043;SDS011;17710;52.520;13.352;2023-03-05T00:01:31;19.30;;;3.25;;
31043;SDS011;17710;52.520;13.352;2023-03-05T00:03:59;21.17;;;3.83;;
31043;SDS011;17710;52.520;13.352;2023-03-05T00:06:27;18.27;;;3.10;;
31043;SDS011;17710;52.520;13.352;2023-03-05T00:08:54;19.65;;;2.95;;
31043;SDS011;17710;52.520;13.352;2023-03-05T00:11:22;19.00;;;3.00;;
31043;SDS011;17710;52.520;13.352;2023-03-05T00:13:53;18.02;;;2.95;;
31043;SDS011;17710;52.520;13.352;2023-03-05T00:16:22;18.10;;;2.95;;
31043;SDS011;17710;52.520;13.352;2023-03-05T00:18:50;20.70;;;3.38;;
31043;SDS011;17710;52.520;13.352;2023-03-05T00:21:18;26.75;;;3.25;;
31043;SDS011;17710;52.520;13.352;2023-03-05T00:23:46;15.38;;;2.83;;
31043;SDS011;17710;52.520;13.352;2023-03-05T00:26:14;24.95;;;3.17;;
31043;SDS011;17710;52.520;13.352;2023-03-05T00:28:41;17.65;;;2.97;;
31043;SDS011;17710;52.520;13.352;2023-03-05T00:31:07;18.13;;;2.40;;
31043;SDS011;17710;52.520;13.352;2023-03-05T00:33:35;17.08;;;3.15;;
31043;SDS011;17710;52.520;13.352;2023-03-05T00:36:04;14.68;;;3.22;;
31043;SDS011;17710;52.520;13.352;2023-03-05T00:38:32;17.95;;;2.83;;
31043;SDS011;17710;52.520;13.352;2023-03-05T00:40:59;22.98;;;3.00;;
31043;SDS011;17710;52.520;13.352;2023-03-05T00:43:26;11.20;;;2.03;;
31043;SDS011;17710;52.520;13.352;2023-03-05T00:45:54;22.33;;;3.45;;
31043;SDS011;17710;52.520;13.352;2023-03-05T00:48:20;30.35;;;3.58;;
31043;SDS011;17710;52.520;13.352;2023-03-05T00:50:48;13.18;;;2.58;;
31043;SDS011;17710;52.520;13.352;2023-03-05T00:53:15;24.92;;;2.63;;
31043;SDS011;17710;52.520;13.352;2023-03-05T00:55:41;19.40;;;2.20;;
31043;SDS011;17710;52.520;13.352;2023-03-05T00:58:08;18.05;;;2.28;;
31043;SDS011;17710;52.520;13.352;2023-03-05T01:00:38;14.13;;;2.10;;
31043;SDS011;17710;52.520;13.352;2023-03-05T01:03:05;16.70;;;2.47;;
31043;SDS011;17710;52.520;13.352;2023-03-05T01:05:31;19.10;;;2.60;;
31043;SDS011;17710;52.520;13.352;2023-03-05T01:07:59;17.85;;;2.55;;
31043;SDS011;17710;52.520;13.352;2023-03-05T01:10:26;13.30;;;2.22;;
31043;SDS011;17710;52.520;13.352;2023-03-05T01:12:53;17.00;;;2.13;;
31043;SDS011;17710;52.520;13.352;2023-03-05T01:15:19;21.55;;;2.45;;
31043;SDS011;17710;52.520;13.352;2023-03-05T01:17:46;14.27;;;1.70;;
31043;SDS011;17710;52.520;13.352;2023-03-05T01:20:13;14.23;;;1.92;;
31043;SDS011;17710;52.520;13.352;2023-03-05T01:22:42;19.40;;;2.67;;
31043;SDS011;17710;52.520;13.352;2023-03-05T01:25:10;15.65;;;3.05;;
31043;SDS011;17710;52.520;13.352;2023-03-05T01:27:37;14.60;;;2.10;;
31043;SDS011;17710;52.520;13.352;2023-03-05T01:30:04;15.73;;;2.03;;
31043;SDS011;17710;52.520;13.352;2023-03-05T01:32:31;16.58;;;2.63;;
31043;SDS011;17710;52.520;13.352;2023-03-05T01:34:58;9.73;;;1.70;;
31043;SDS011;17710;52.520;13.352;2023-03-05T01:37:25;15.25;;;2.05;;
31043;SDS011;17710;52.520;13.352;2023-03-05T01:39:52;16.95;;;3.15;;
31043;SDS011;17710;52.520;13.352;2023-03-05T01:42:20;14.57;;;1.90;;
31043;SDS011;17710;52.520;13.352;2023-03-05T01:44:58;15.20;;;2.13;;
31043;SDS011;17710;52.520;13.352;2023-03-05T01:47:26;11.68;;;1.50;;
31043;SDS011;17710;52.520;13.352;2023-03-05T01:49:52;11.63;;;1.88;;
31043;SDS011;17710;52.520;13.352;2023-03-05T01:52:20;8.55;;;1.48;;
31043;SDS011;17710;52.520;13.352;2023-03-05T01:54:48;14.65;;;1.77;;
31043;SDS011;17710;52.520;13.352;2023-03-05T01:57:20;14.93;;;1.52;;
31043;SDS011;17710;52.520;13.352;2023-03-05T01:59:51;12.55;;;1.58;;
31043;SDS011;17710;52.520;13.352;2023-03-05T02:02:20;12.43;;;2.30;;
31043;SDS011;17710;52.520;13.352;2023-03-05T02:04:49;7.50;;;1.33;;
31043;SDS011;17710;52.520;13.352;2023-03-05T02:07:18;12.98;;;1.45;;
31043;SDS011;17710;52.520;13.352;2023-03-05T02:09:45;10.95;;;1.50;;
31043;SDS011;17710;52.520;13.352;2023-03-05T02:12:14;8.25;;;1.58;;
31043;SDS011;17710;52.520;13.352;2023-03-05T02:14:43;14.63;;;1.70;;
31043;SDS011;17710;52.520;13.352;2023-03-05T02:17:11;9.55;;;1.42;;
31043;SDS011;17710;52.520;13.352;2023-03-05T02:19:45;11.52;;;1.60;;
31043;SDS011;17710;52.520;13.352;2023-03-05T02:22:18;7.22;;;1.33;;
31043;SDS011;17710;52.520;13.352;2023-03-05T02:24:47;11.38;;;1.40;;
31043;SDS011;17710;52.520;13.352;2023-03-05T02:27:13;8.98;;;1.50;;
31043;SDS011;17710;52.520;13.352;2023-03-05T02:29:41;10.45;;;1.33;;
31043;SDS011;17710;52.520;13.352;2023-03-05T02:32:10;10.70;;;1.58;;
31043;SDS011;17710;52.520;13.352;2023-03-05T02:34:36;11.70;;;1.48;;
31043;SDS011;17710;52.520;13.352;2023-03-05T02:37:03;9.95;;;1.55;;
31043;SDS011;17710;52.520;13.352;2023-03-05T02:39:34;14.07;;;1.63;;
31043;SDS011;17710;52.520;13.352;2023-03-05T02:42:01;12.82;;;2.40;;
31043;SDS011;17710;52.520;13.352;2023-03-05T02:44:27;11.27;;;1.50;;
31043;SDS011;17710;52.520;13.352;2023-03-05T02:46:53;6.57;;;1.00;;
31043;SDS011;17710;52.520;13.352;2023-03-05T02:49:20;12.45;;;1.65;;
31043;SDS011;17710;52.520;13.352;2023-03-05T02:51:46;7.10;;;0.80;;
31043;SDS011;17710;52.520;13.352;2023-03-05T02:54:13;9.48;;;1.25;;
31043;SDS011;17710;52.520;13.352;2023-03-05T02:56:40;10.85;;;1.50;;
31043;SDS011;17710;52.520;13.352;2023-03-05T02:59:07;10.00;;;1.40;;
31043;SDS011;17710;52.520;13.352;2023-03-05T03:01:34;11.15;;;2.63;;
31043;SDS011;17710;52.520;13.352;2023-03-05T03:04:00;10.18;;;1.30;;
31043;SDS011;17710;52.520;13.352;2023-03-05T03:06:26;8.63;;;1.55;;
31043;SDS011;17710;52.520;13.352;2023-03-05T03:08:53;5.63;;;1.55;;
31043;SDS011;17710;52.520;13.352;2023-03-05T03:11:19;12.82;;;1.42;;
31043;SDS011;17710;52.520;13.352;2023-03-05T03:13:47;12.23;;;2.05;;
31043;SDS011;17710;52.520;13.352;2023-03-05T03:16:14;11.88;;;1.58;;
31043;SDS011;17710;52.520;13.352;2023-03-05T03:18:40;6.28;;;0.85;;
31043;SDS011;17710;52.520;13.352;2023-03-05T03:21:08;10.18;;;1.75;;
31043;SDS011;17710;52.520;13.352;2023-03-05T03:23:34;7.95;;;1.20;;
31043;SDS011;17710;52.520;13.352;2023-03-05T03:26:00;8.60;;;1.33;;
31043;SDS011;17710;52.520;13.352;2023-03-05T03:28:27;4.03;;;1.10;;
31043;SDS011;17710;52.520;13.352;2023-03-05T03:30:54;10.43;;;1.23;;
31043;SDS011;17710;52.520;13.352;2023-03-05T03:33:21;8.18;;;1.80;;
31043;SDS011;17710;52.520;13.352;2023-03-05T03:35:47;4.63;;;1.27;;
31043;SDS011;17710;52.520;13.352;2023-03-05T03:38:13;8.93;;;2.00;;
31043;SDS011;17710;52.520;13.352;2023-03-05T03:40:40;6.97;;;1.30;;
31043;SDS011;17710;52.520;13.352;2023-03-05T03:43:07;7.05;;;1.33;;
31043;SDS011;17710;52.520;13.352;2023-03-05T03:45:34;6.03;;;1.25;;
31043;SDS011;17710;52.520;13.352;2023-03-05T03:48:02;7.30;;;1.35;;
31043;SDS011;17710;52.520;13.352;2023-03-05T03:50:28;10.50;;;1.10;;
31043;SDS011;17710;52.520;13.352;2023-03-05T03:52:54;12.18;;;1.63;;
31043;SDS011;17710;52.520;13.352;2023-03-05T03:55:21;4.30;;;1.15;;
31043;SDS011;17710;52.520;13.352;2023-03-05T03:57:47;8.98;;;1.25;;
31043;SDS011;17710;52.520;13.352;2023-03-05T04:00:14;17.73;;;1.40;;
31043;SDS011;17710;52.520;13.352;2023-03-05T04:02:41;8.20;;;0.90;;
31043;SDS011;17710;52.520;13.352;2023-03-05T04:05:09;7.15;;;1.77;;
31043;SDS011;17710;52.520;13.352;2023-03-05T04:07:35;10.05;;;1.17;;
31043;SDS011;17710;52.520;13.352;2023-03-05T04:10:02;11.65;;;1.45;;
31043;SDS011;17710;52.520;13.352;2023-03-05T04:12:29;7.18;;;2.25;;
31043;SDS011;17710;52.520;13.352;2023-03-05T04:14:56;8.40;;;1.08;;
31043;SDS011;17710;52.520;13.352;2023-03-05T04:17:22;10.50;;;1.20;;
31043;SDS011;17710;52.520;13.352;2023-03-05T04:19:49;4.20;;;1.17;;
31043;SDS011;17710;52.520;13.352;2023-03-05T04:22:17;8.05;;;1.60;;
31043;SDS011;17710;52.520;13.352;2023-03-05T04:24:43;11.68;;;1.35;;
31043;SDS011;17710;52.520;13.352;2023-03-05T04:27:10;9.57;;;1.23;;
31043;SDS011;17710;52.520;13.352;2023-03-05T04:29:37;7.45;;;1.20;;
31043;SDS011;17710;52.520;13.352;2023-03-05T04:32:03;11.43;;;1.35;;
31043;SDS011;17710;52.520;13.352;2023-03-05T04:34:30;6.95;;;1.05;;
31043;SDS011;17710;52.520;13.352;2023-03-05T04:36:57;6.72;;;1.00;;
31043;SDS011;17710;52.520;13.352;2023-03-05T04:39:25;7.40;;;1.15;;
31043;SDS011;17710;52.520;13.352;2023-03-05T04:41:51;10.25;;;2.33;;
31043;SDS011;17710;52.520;13.352;2023-03-05T04:44:17;8.70;;;1.55;;
31043;SDS011;17710;52.520;13.352;2023-03-05T04:46:45;7.50;;;1.33;;
31043;SDS011;17710;52.520;13.352;2023-03-05T04:49:12;9.88;;;1.42;;
31043;SDS011;17710;52.520;13.352;2023-03-05T04:51:39;10.63;;;1.85;;
31043;SDS011;17710;52.520;13.352;2023-03-05T04:54:06;7.35;;;1.20;;
31043;SDS011;17710;52.520;13.352;2023-03-05T04:56:34;7.60;;;1.45;;
31043;SDS011;17710;52.520;13.352;2023-03-05T04:59:00;12.85;;;1.17;;
31043;SDS011;17710;52.520;13.352;2023-03-05T05:01:27;4.75;;;1.40;;
31043;SDS011;17710;52.520;13.352;2023-03-05T05:03:53;10.20;;;1.48;;
31043;SDS011;17710;52.520;13.352;2023-03-05T05:06:20;9.50;;;1.58;;
31043;SDS011;17710;52.520;13.352;2023-03-05T05:08:46;7.80;;;1.27;;
31043;SDS011;17710;52.520;13.352;2023-03-05T05:11:13;6.88;;;1.25;;
31043;SDS011;17710;52.520;13.352;2023-03-05T05:13:41;9.88;;;2.30;;
31043;SDS011;17710;52.520;13.352;2023-03-05T05:16:07;7.38;;;1.50;;
31043;SDS011;17710;52.520;13.352;2023-03-05T05:18:34;7.05;;;1.40;;
31043;SDS011;17710;52.520;13.352;2023-03-05T05:21:00;10.20;;;1.40;;
31043;SDS011;17710;52.520;13.352;2023-03-05T05:23:27;7.88;;;1.58;;
31043;SDS011;17710;52.520;13.352;2023-03-05T05:25:56;10.15;;;1.25;;
31043;SDS011;17710;52.520;13.352;2023-03-05T05:28:23;9.82;;;1.33;;
31043;SDS011;17710;52.520;13.352;2023-03-05T05:30:52;9.85;;;1.88;;
31043;SDS011;17710;52.520;13.352;2023-03-05T05:33:19;7.45;;;1.23;;
31043;SDS011;17710;52.520;13.352;2023-03-05T05:35:46;9.90;;;1.40;;
31043;SDS011;17710;52.520;13.352;2023-03-05T05:38:13;11.43;;;1.20;;
31043;SDS011;17710;52.520;13.352;2023-03-05T05:40:39;12.63;;;1.13;;
31043;SDS011;17710;52.520;13.352;2023-03-05T05:43:06;9.20;;;1.70;;
31043;SDS011;17710;52.520;13.352;2023-03-05T05:45:33;11.40;;;1.33;;
31043;SDS011;17710;52.520;13.352;2023-03-05T05:48:03;6.15;;;1.38;;
31043;SDS011;17710;52.520;13.352;2023-03-05T05:50:30;13.68;;;3.75;;
31043;SDS011;17710;52.520;13.352;2023-03-05T05:52:56;9.07;;;1.30;;
31043;SDS011;17710;52.520;13.352;2023-03-05T05:55:22;7.18;;;1.10;;
31043;SDS011;17710;52.520;13.352;2023-03-05T05:57:49;17.10;;;2.20;;
31043;SDS011;17710;52.520;13.352;2023-03-05T06:00:15;8.30;;;1.13;;
31043;SDS011;17710;52.520;13.352;2023-03-05T06:02:42;11.50;;;1.83;;
31043;SDS011;17710;52.520;13.352;2023-03-05T06:05:11;10.30;;;1.50;;
31043;SDS011;17710;52.520;13.352;2023-03-05T06:07:39;12.75;;;3.42;;
31043;SDS011;17710;52.520;13.352;2023-03-05T06:10:07;11.50;;;1.80;;
31043;SDS011;17710;52.520;13.352;2023-03-05T06:12:34;6.88;;;1.02;;
31043;SDS011;17710;52.520;13.352;2023-03-05T06:15:01;7.43;;;1.02;;
31043;SDS011;17710;52.520;13.352;2023-03-05T06:17:27;9.77;;;1.20;;
31043;SDS011;17710;52.520;13.352;2023-03-05T06:19:54;9.27;;;1.58;;
31043;SDS011;17710;52.520;13.352;2023-03-05T06:22:22;11.57;;;1.60;;
31043;SDS011;17710;52.520;13.352;2023-03-05T06:24:48;11.95;;;2.17;;
31043;SDS011;17710;52.520;13.352;2023-03-05T06:27:14;11.05;;;1.98;;
31043;SDS011;17710;52.520;13.352;2023-03-05T06:29:41;9.48;;;1.70;;
31043;SDS011;17710;52.520;13.352;2023-03-05T06:32:07;6.50;;;0.95;;
31043;SDS011;17710;52.520;13.352;2023-03-05T06:34:34;5.40;;;0.93;;
31043;SDS011;17710;52.520;13.352;2023-03-05T06:37:01;9.75;;;1.25;;
31043;SDS011;17710;52.520;13.352;2023-03-05T06:39:28;9.00;;;1.80;;
31043;SDS011;17710;52.520;13.352;2023-03-05T06:41:55;7.20;;;1.33;;
31043;SDS011;17710;52.520;13.352;2023-03-05T06:44:22;10.65;;;1.33;;
31043;SDS011;17710;52.520;13.352;2023-03-05T06:46:49;11.18;;;1.70;;
31043;SDS011;17710;52.520;13.352;2023-03-05T06:49:16;11.32;;;1.50;;
31043;SDS011;17710;52.520;13.352;2023-03-05T06:51:42;7.97;;;1.10;;
31043;SDS011;17710;52.520;13.352;2023-03-05T06:54:11;9.95;;;1.25;;
31043;SDS011;17710;52.520;13.352;2023-03-05T06:56:41;8.02;;;1.50;;
31043;SDS011;17710;52.520;13.352;2023-03-05T06:59:10;10.32;;;1.50;;
31043;SDS011;17710;52.520;13.352;2023-03-05T07:01:37;5.07;;;1.02;;
31043;SDS011;17710;52.520;13.352;2023-03-05T07:04:04;7.88;;;1.40;;
31043;SDS011;17710;52.520;13.352;2023-03-05T07:06:31;5.60;;;1.23;;
31043;SDS011;17710;52.520;13.352;2023-03-05T07:08:59;8.50;;;2.20;;
31043;SDS011;17710;52.520;13.352;2023-03-05T07:11:27;8.07;;;1.30;;
31043;SDS011;17710;52.520;13.352;2023-03-05T07:13:54;6.03;;;1.48;;
31043;SDS011;17710;52.520;13.352;2023-03-05T07:16:22;5.30;;;1.27;;
31043;SDS011;17710;52.520;13.352;2023-03-05T07:18:51;4.65;;;1.10;;
31043;SDS011;17710;52.520;13.352;2023-03-05T07:21:18;6.15;;;1.48;;
31043;SDS011;17710;52.520;13.352;2023-03-05T07:23:45;9.50;;;1.35;;
31043;SDS011;17710;52.520;13.352;2023-03-05T07:26:13;8.02;;;1.13;;
31043;SDS011;17710;52.520;13.352;2023-03-05T07:28:40;4.55;;;1.10;;
31043;SDS011;17710;52.520;13.352;2023-03-05T07:31:10;5.47;;;1.30;;
31043;SDS011;17710;52.520;13.352;2023-03-05T07:33:38;8.38;;;1.27;;
31043;SDS011;17710;52.520;13.352;2023-03-05T07:36:06;5.18;;;0.90;;
31043;SDS011;17710;52.520;13.352;2023-03-05T07:38:33;8.02;;;0.90;;
31043;SDS011;17710;52.520;13.352;2023-03-05T07:41:01;7.18;;;0.90;;
31043;SDS011;17710;52.520;13.352;2023-03-05T07:43:28;8.50;;;1.05;;
31043;SDS011;17710;52.520;13.352;2023-03-05T07:45:54;8.98;;;1.63;;
31043;SDS011;17710;52.520;13.352;2023-03-05T07:48:22;8.43;;;1.27;;
31043;SDS011;17710;52.520;13.352;2023-03-05T07:50:49;7.65;;;1.20;;
31043;SDS011;17710;52.520;13.352;2023-03-05T07:53:15;7.55;;;1.27;;
31043;SDS011;17710;52.520;13.352;2023-03-05T07:55:42;9.60;;;2.03;;
31043;SDS011;17710;52.520;13.352;2023-03-05T07:58:09;4.18;;;1.15;;
31043;SDS011;17710;52.520;13.352;2023-03-05T08:00:35;9.00;;;2.17;;
31043;SDS011;17710;52.520;13.352;2023-03-05T08:03:02;4.80;;;1.05;;
31043;SDS011;17710;52.520;13.352;2023-03-05T08:05:30;4.63;;;1.15;;
31043;SDS011;17710;52.520;13.352;2023-03-05T08:07:56;6.82;;;0.85;;
31043;SDS011;17710;52.520;13.352;2023-03-05T08:10:23;6.35;;;1.60;;
31043;SDS011;17710;52.520;13.352;2023-03-05T08:12:49;6.75;;;1.35;;
31043;SDS011;17710;52.520;13.352;2023-03-05T08:15:16;4.40;;;0.93;;
31043;SDS011;17710;52.520;13.352;2023-03-05T08:17:42;9.45;;;1.35;;
31043;SDS011;17710;52.520;13.352;2023-03-05T08:20:09;6.28;;;1.10;;
31043;SDS011;17710;52.520;13.352;2023-03-05T08:22:38;9.60;;;1.20;;
31043;SDS011;17710;52.520;13.352;2023-03-05T08:25:05;11.50;;;1.63;;
31043;SDS011;17710;52.520;13.352;2023-03-05T08:27:32;9.82;;;1.50;;
31043;SDS011;17710;52.520;13.352;2023-03-05T08:30:00;4.20;;;0.82;;
31043;SDS011;17710;52.520;13.352;2023-03-05T08:32:27;7.10;;;2.75;;
31043;SDS011;17710;52.520;13.352;2023-03-05T08:34:54;8.05;;;1.30;;
31043;SDS011;17710;52.520;13.352;2023-03-05T08:37:22;5.65;;;1.00;;
31043;SDS011;17710;52.520;13.352;2023-03-05T08:39:50;8.73;;;1.35;;
31043;SDS011;17710;52.520;13.352;2023-03-05T08:42:16;3.72;;;0.98;;
31043;SDS011;17710;52.520;13.352;2023-03-05T08:44:43;12.68;;;1.20;;
31043;SDS011;17710;52.520;13.352;2023-03-05T08:47:09;5.57;;;1.10;;
31043;SDS011;17710;52.520;13.352;2023-03-05T08:49:36;4.97;;;1.13;;
31043;SDS011;17710;52.520;13.352;2023-03-05T08:52:02;6.57;;;1.08;;
31043;SDS011;17710;52.520;13.352;2023-03-05T08:54:29;8.70;;;2.33;;
31043;SDS011;17710;52.520;13.352;2023-03-05T08:56:57;6.97;;;0.90;;
31043;SDS011;17710;52.520;13.352;2023-03-05T08:59:23;8.10;;;0.82;;
31043;SDS011;17710;52.520;13.352;2023-03-05T09:01:49;6.40;;;1.13;;
31043;SDS011;17710;52.520;13.352;2023-03-05T09:04:16;7.65;;;1.17;;
31043;SDS011;17710;52.520;13.352;2023-03-05T09:06:43;8.23;;;1.10;;
31043;SDS011;17710;52.520;13.352;2023-03-05T09:09:09;3.40;;;0.80;;
31043;SDS011;17710;52.520;13.352;2023-03-05T09:11:37;5.47;;;0.80;;
31043;SDS011;17710;52.520;13.352;2023-03-05T09:14:05;6.50;;;1.42;;
31043;SDS011;17710;52.520;13.352;2023-03-05T09:16:32;3.53;;;0.90;;
31043;SDS011;17710;52.520;13.352;2023-03-05T09:19:00;5.93;;;1.45;;
31043;SDS011;17710;52.520;13.352;2023-03-05T09:21:29;6.88;;;1.20;;
31043;SDS011;17710;52.520;13.352;2023-03-05T09:23:56;4.85;;;1.00;;
31043;SDS011;17710;52.520;13.352;2023-03-05T09:26:24;3.88;;;0.75;;
31043;SDS011;17710;52.520;13.352;2023-03-05T09:28:51;7.10;;;0.95;;
31043;SDS011;17710;52.520;13.352;2023-03-05T09:31:19;6.93;;;1.52;;
31043;SDS011;17710;52.520;13.352;2023-03-05T09:33:46;9.43;;;1.02;;
31043;SDS011;17710;52.520;13.352;2023-03-05T09:36:15;4.45;;;1.15;;
31043;SDS011;17710;52.520;13.352;2023-03-05T09:38:44;5.50;;;1.15;;
31043;SDS011;17710;52.520;13.352;2023-03-05T09:41:16;7.07;;;1.15;;
31043;SDS011;17710;52.520;13.352;2023-03-05T09:43:52;9.75;;;1.58;;
31043;SDS011;17710;52.520;13.352;2023-03-05T09:46:28;6.68;;;1.23;;
31043;SDS011;17710;52.520;13.352;2023-03-05T09:49:09;8.07;;;1.10;;
31043;SDS011;17710;52.520;13.352;2023-03-05T09:51:41;12.02;;;1.75;;
31043;SDS011;17710;52.520;13.352;2023-03-05T09:54:12;5.45;;;0.95;;
31043;SDS011;17710;52.520;13.352;2023-03-05T09:56:43;5.70;;;1.05;;
31043;SDS011;17710;52.520;13.352;2023-03-05T09:59:16;2.83;;;1.10;;
31043;SDS011;17710;52.520;13.352;2023-03-05T10:01:50;7.72;;;1.33;;
31043;SDS011;17710;52.520;13.352;2023-03-05T10:04:20;8.35;;;1.52;;
31043;SDS011;17710;52.520;13.352;2023-03-05T10:06:52;4.47;;;0.90;;
31043;SDS011;17710;52.520;13.352;2023-03-05T10:09:26;6.05;;;1.00;;
31043;SDS011;17710;52.520;13.352;2023-03-05T10:12:06;8.48;;;1.02;;
31043;SDS011;17710;52.520;13.352;2023-03-05T10:14:40;10.02;;;1.30;;
31043;SDS011;17710;52.520;13.352;2023-03-05T10:17:14;6.03;;;1.10;;
31043;SDS011;17710;52.520;13.352;2023-03-05T10:23:13;2.53;;;1.00;;
31043;SDS011;17710;52.520;13.352;2023-03-05T10:28:24;4.63;;;1.00;;
31043;SDS011;17710;52.520;13.352;2023-03-05T10:31:04;7.87;;;1.10;;
31043;SDS011;17710;52.520;13.352;2023-03-05T10:33:45;6.82;;;1.38;;
31043;SDS011;17710;52.520;13.352;2023-03-05T10:36:30;3.90;;;0.98;;
31043;SDS011;17710;52.520;13.352;2023-03-05T10:39:15;6.38;;;1.08;;
31043;SDS011;17710;52.520;13.352;2023-03-05T10:42:01;7.13;;;1.08;;
31043;SDS011;17710;52.520;13.352;2023-03-05T10:44:35;8.95;;;1.60;;
31043;SDS011;17710;52.520;13.352;2023-03-05T10:47:10;8.23;;;1.50;;
31043;SDS011;17710;52.520;13.352;2023-03-05T10:49:44;5.80;;;1.45;;
31043;SDS011;17710;52.520;13.352;2023-03-05T10:52:16;8.70;;;1.60;;
31043;SDS011;17710;52.520;13.352;2023-03-05T10:54:46;4.85;;;2.22;;
31043;SDS011;17710;52.520;13.352;2023-03-05T10:57:14;7.53;;;2.63;;
31043;SDS011;17710;52.520;13.352;2023-03-05T10:59:46;10.15;;;1.67;;
31043;SDS011;17710;52.520;13.352;2023-03-05T11:02:14;7.45;;;1.50;;
31043;SDS011;17710;52.520;13.352;2023-03-05T11:04:41;5.28;;;1.27;;
31043;SDS011;17710;52.520;13.352;2023-03-05T11:10:02;5.70;;;1.33;;
31043;SDS011;17710;52.520;13.352;2023-03-05T11:12:32;4.90;;;1.23;;
31043;SDS011;17710;52.520;13.352;2023-03-05T11:15:02;7.03;;;1.20;;
31043;SDS011;17710;52.520;13.352;2023-03-05T11:17:32;6.95;;;1.50;;
31043;SDS011;17710;52.520;13.352;2023-03-05T11:20:19;12.02;;;3.17;;
31043;SDS011;17710;52.520;13.352;2023-03-05T11:23:07;8.20;;;1.65;;
31043;SDS011;17710;52.520;13.352;2023-03-05T11:25:47;4.45;;;1.25;;
31043;SDS011;17710;52.520;13.352;2023-03-05T11:28:22;6.97;;;2.45;;
31043;SDS011;17710;52.520;13.352;2023-03-05T11:30:56;8.00;;;3.50;;
31043;SDS011;17710;52.520;13.352;2023-03-05T11:33:24;7.13;;;1.30;;
31043;SDS011;17710;52.520;13.352;2023-03-05T11:35:52;10.43;;;1.70;;
31043;SDS011;17710;52.520;13.352;2023-03-05T11:38:38;7.95;;;1.70;;
31043;SDS011;17710;52.520;13.352;2023-03-05T11:41:11;5.22;;;2.53;;
31043;SDS011;17710;52.520;13.352;2023-03-05T11:43:38;3.13;;;1.67;;
31043;SDS011;17710;52.520;13.352;2023-03-05T11:46:08;4.00;;;1.10;;
31043;SDS011;17710;52.520;13.352;2023-03-05T11:48:37;2.67;;;1.02;;
31043;SDS011;17710;52.520;13.352;2023-03-05T11:51:07;4.30;;;1.23;;
31043;SDS011;17710;52.520;13.352;2023-03-05T11:53:39;6.38;;;1.17;;
31043;SDS011;17710;52.520;13.352;2023-03-05T11:56:12;8.10;;;1.90;;
31043;SDS011;17710;52.520;13.352;2023-03-05T11:58:45;6.55;;;1.80;;
31043;SDS011;17710;52.520;13.352;2023-03-05T12:01:19;4.97;;;1.30;;
31043;SDS011;17710;52.520;13.352;2023-03-05T12:03:47;7.32;;;1.25;;
31043;SDS011;17710;52.520;13.352;2023-03-05T12:06:16;4.22;;;1.75;;
31043;SDS011;17710;52.520;13.352;2023-03-05T12:08:50;6.95;;;1.90;;
31043;SDS011;17710;52.520;13.352;2023-03-05T12:11:21;7.15;;;1.58;;
31043;SDS011;17710;52.520;13.352;2023-03-05T12:13:53;6.80;;;1.77;;
31043;SDS011;17710;52.520;13.352;2023-03-05T12:16:25;4.00;;;1.38;;
31043;SDS011;17710;52.520;13.352;2023-03-05T12:21:59;7.07;;;1.73;;
31043;SDS011;17710;52.520;13.352;2023-03-05T12:24:36;5.00;;;1.42;;
31043;SDS011;17710;52.520;13.352;2023-03-05T12:27:08;6.18;;;1.60;;
31043;SDS011;17710;52.520;13.352;2023-03-05T12:29:44;4.93;;;1.55;;
31043;SDS011;17710;52.520;13.352;2023-03-05T12:35:28;6.13;;;1.52;;
31043;SDS011;17710;52.520;13.352;2023-03-05T12:38:01;4.35;;;2.47;;
31043;SDS011;17710;52.520;13.352;2023-03-05T12:40:33;7.03;;;1.40;;
31043;SDS011;17710;52.520;13.352;2023-03-05T12:43:00;2.28;;;0.85;;
31043;SDS011;17710;52.520;13.352;2023-03-05T12:45:35;4.78;;;1.38;;
31043;SDS011;17710;52.520;13.352;2023-03-05T12:51:13;3.58;;;1.40;;
31043;SDS011;17710;52.520;13.352;2023-03-05T12:53:53;3.40;;;1.30;;
31043;SDS011;17710;52.520;13.352;2023-03-05T12:56:22;8.18;;;1.23;;
31043;SDS011;17710;52.520;13.352;2023-03-05T12:58:53;6.28;;;1.60;;
31043;SDS011;17710;52.520;13.352;2023-03-05T13:01:28;9.90;;;1.25;;
31043;SDS011;17710;52.520;13.352;2023-03-05T13:04:04;5.43;;;1.20;;
31043;SDS011;17710;52.520;13.352;2023-03-05T13:06:35;5.93;;;1.27;;
31043;SDS011;17710;52.520;13.352;2023-03-05T13:09:06;5.38;;;1.23;;
31043;SDS011;17710;52.520;13.352;2023-03-05T13:11:42;7.63;;;1.40;;
31043;SDS011;17710;52.520;13.352;2023-03-05T13:14:22;2.80;;;1.35;;
31043;SDS011;17710;52.520;13.352;2023-03-05T13:16:55;9.15;;;2.88;;
31043;SDS011;17710;52.520;13.352;2023-03-05T13:19:21;5.35;;;1.73;;
31043;SDS011;17710;52.520;13.352;2023-03-05T13:21:55;8.15;;;2.95;;
31043;SDS011;17710;52.520;13.352;2023-03-05T13:24:23;6.53;;;2.20;;
31043;SDS011;17710;52.520;13.352;2023-03-05T13:26:51;5.93;;;1.85;;
31043;SDS011;17710;52.520;13.352;2023-03-05T13:29:18;11.02;;;1.70;;
31043;SDS011;17710;52.520;13.352;2023-03-05T13:31:46;3.13;;;1.40;;
31043;SDS011;17710;52.520;13.352;2023-03-05T13:34:17;7.50;;;1.25;;
31043;SDS011;17710;52.520;13.352;2023-03-05T13:36:47;7.70;;;1.60;;
31043;SDS011;17710;52.520;13.352;2023-03-05T13:39:19;7.47;;;1.33;;
31043;SDS011;17710;52.520;13.352;2023-03-05T13:41:59;5.32;;;1.52;;
31043;SDS011;17710;52.520;13.352;2023-03-05T13:44:29;6.57;;;1.30;;
31043;SDS011;17710;52.520;13.352;2023-03-05T13:47:06;7.43;;;1.48;;
31043;SDS011;17710;52.520;13.352;2023-03-05T13:49:34;8.70;;;1.80;;
31043;SDS011;17710;52.520;13.352;2023-03-05T13:52:01;8.20;;;2.30;;
31043;SDS011;17710;52.520;13.352;2023-03-05T13:54:27;7.18;;;1.80;;
31043;SDS011;17710;52.520;13.352;2023-03-05T13:56:55;3.08;;;1.20;;
31043;SDS011;17710;52.520;13.352;2023-03-05T13:59:24;5.47;;;1.10;;
31043;SDS011;17710;52.520;13.352;2023-03-05T14:01:54;6.82;;;1.50;;
31043;SDS011;17710;52.520;13.352;2023-03-05T14:04:22;2.05;;;0.85;;
31043;SDS011;17710;52.520;13.352;2023-03-05T14:06:51;7.70;;;1.48;;
31043;SDS011;17710;52.520;13.352;2023-03-05T14:09:22;5.18;;;1.23;;
31043;SDS011;17710;52.520;13.352;2023-03-05T14:11:55;5.22;;;0.98;;
31043;SDS011;17710;52.520;13.352;2023-03-05T14:14:29;3.10;;;1.02;;
31043;SDS011;17710;52.520;13.352;2023-03-05T14:19:47;4.93;;;1.02;;
31043;SDS011;17710;52.520;13.352;2023-03-05T14:22:26;3.63;;;1.23;;
31043;SDS011;17710;52.520;13.352;2023-03-05T14:24:55;5.18;;;0.82;;
31043;SDS011;17710;52.520;13.352;2023-03-05T14:27:29;2.92;;;1.00;;
31043;SDS011;17710;52.520;13.352;2023-03-05T14:30:03;5.82;;;1.10;;
31043;SDS011;17710;52.520;13.352;2023-03-05T14:32:47;6.00;;;1.00;;
31043;SDS011;17710;52.520;13.352;2023-03-05T14:35:16;3.53;;;0.93;;
31043;SDS011;17710;52.520;13.352;2023-03-05T14:37:45;3.72;;;1.05;;
31043;SDS011;17710;52.520;13.352;2023-03-05T14:40:17;5.25;;;1.00;;
31043;SDS011;17710;52.520;13.352;2023-03-05T14:42:51;6.03;;;0.98;;
31043;SDS011;17710;52.520;13.352;2023-03-05T14:45:22;5.38;;;1.00;;
31043;SDS011;17710;52.520;13.352;2023-03-05T14:47:51;3.80;;;0.80;;
31043;SDS011;17710;52.520;13.352;2023-03-05T14:50:20;2.67;;;0.80;;
31043;SDS011;17710;52.520;13.352;2023-03-05T14:52:48;4.68;;;0.95;;
31043;SDS011;17710;52.520;13.352;2023-03-05T14:55:18;4.15;;;1.00;;
31043;SDS011;17710;52.520;13.352;2023-03-05T14:57:47;3.03;;;0.75;;
31043;SDS011;17710;52.520;13.352;2023-03-05T15:00:15;4.78;;;1.00;;
31043;SDS011;17710;52.520;13.352;2023-03-05T15:02:45;3.17;;;0.90;;